sensor_id;sensor_type;location;lat;lon;timestamp;temperature;humidity
18781;DHT22;9519;51.890;8.970;2023-04-01T00:04:16;10.20;99.90
18781;DHT22;9519;51.890;8.970;2023-04-01T00:09:20;10.20;99.90
18781;DHT22;9519;51.890;8.970;2023-04-01T00:14:22;10.20;99.90
18781;DHT22;9519;51.890;8.970;2023-04-01T00:19:24;10.20;99.90
18781;DHT22;9519;51.890;8.970;2023-04-01T00:24:28;10.30;99.90
18781;DHT22;9519;51.890;8.970;2023-04-01T00:29:30;10.30;99.90
18781;DHT22;9519;51.890;8.970;2023-04-01T00:34:33;10.30;99.90
18781;DHT22;9519;51.890;8.970;2023-04-01T00:39:36;10.30;99.90
18781;DHT22;9519;51.890;8.970;2023-04-01T00:44:39;10.30;99.90
18781;DHT22;9519;51.890;8.970;2023-04-01T00:49:44;10.30;99.90
18781;DHT22;9519;51.890;8.970;2023-04-01T00:54:53;10.20;99.90
18781;DHT22;9519;51.890;8.970;2023-04-01T01:00:02;10.30;99.90
18781;DHT22;9519;51.890;8.970;2023-04-01T01:05:08;10.30;99.90
18781;DHT22;9519;51.890;8.970;2023-04-01T01:10:17;10.20;99.90
18781;DHT22;9519;51.890;8.970;2023-04-01T01:15:28;10.30;99.90
18781;DHT22;9519;51.890;8.970;2023-04-01T01:20:53;10.30;99.90
18781;DHT22;9519;51.890;8.970;2023-04-01T01:26:36;10.30;99.90
18781;DHT22;9519;51.890;8.970;2023-04-01T01:31:57;10.20;99.90
18781;DHT22;9519;51.890;8.970;2023-04-01T01:37:11;10.20;99.90
18781;DHT22;9519;51.890;8.970;2023-04-01T01:42:16;10.20;99.90
18781;DHT22;9519;51.890;8.970;2023-04-01T01:47:22;10.20;99.90
18781;DHT22;9519;51.890;8.970;2023-04-01T01:52:27;10.10;99.90
18781;DHT22;9519;51.890;8.970;2023-04-01T01:57:33;10.20;99.90
18781;DHT22;9519;51.890;8.970;2023-04-01T02:02:36;10.20;99.90
18781;DHT22;9519;51.890;8.970;2023-04-01T02:07:40;10.20;99.90
18781;DHT22;9519;51.890;8.970;2023-04-01T02:12:48;10.20;99.90
18781;DHT22;9519;51.890;8.970;2023-04-01T02:17:52;10.20;99.90
18781;DHT22;9519;51.890;8.970;2023-04-01T02:22:59;10.20;99.90
18781;DHT22;9519;51.890;8.970;2023-04-01T02:28:02;10.10;99.90
18781;DHT22;9519;51.890;8.970;2023-04-01T02:33:07;10.10;99.90
18781;DHT22;9519;51.890;8.970;2023-04-01T02:38:10;10.00;99.90
18781;DHT22;9519;51.890;8.970;2023-04-01T02:43:13;10.00;99.90
18781;DHT22;9519;51.890;8.970;2023-04-01T02:48:16;10.10;99.90
18781;DHT22;9519;51.890;8.970;2023-04-01T02:53:20;10.10;99.90
18781;DHT22;9519;51.890;8.970;2023-04-01T02:58:22;10.00;99.90
18781;DHT22;9519;51.890;8.970;2023-04-01T03:03:24;10.00;99.90
18781;DHT22;9519;51.890;8.970;2023-04-01T03:08:27;10.00;99.90
18781;DHT22;9519;51.890;8.970;2023-04-01T03:13:29;10.00;99.90
18781;DHT22;9519;51.890;8.970;2023-04-01T03:18:31;10.00;99.90
18781;DHT22;9519;51.890;8.970;2023-04-01T03:23:34;10.10;99.90
18781;DHT22;9519;51.890;8.970;2023-04-01T03:28:37;10.00;99.90
18781;DHT22;9519;51.890;8.970;2023-04-01T03:33:39;10.10;99.90
18781;DHT22;9519;51.890;8.970;2023-04-01T03:38:43;10.10;99.90
18781;DHT22;9519;51.890;8.970;2023-04-01T03:43:46;10.10;99.90
18781;DHT22;9519;51.890;8.970;2023-04-01T03:48:48;10.10;99.90
18781;DHT22;9519;51.890;8.970;2023-04-01T03:53:51;10.10;99.90
18781;DHT22;9519;51.890;8.970;2023-04-01T03:58:53;10.10;99.90
18781;DHT22;9519;51.890;8.970;2023-04-01T04:03:55;10.10;99.90
18781;DHT22;9519;51.890;8.970;2023-04-01T04:08:59;10.10;99.90
18781;DHT22;9519;51.890;8.970;2023-04-01T04:14:01;10.10;99.90
18781;DHT22;9519;51.890;8.970;2023-04-01T04:19:03;10.10;99.90
18781;DHT22;9519;51.890;8.970;2023-04-01T04:24:08;10.10;99.90
18781;DHT22;9519;51.890;8.970;2023-04-01T04:29:10;10.10;99.90
18781;DHT22;9519;51.890;8.970;2023-04-01T04:34:12;10.10;99.90
18781;DHT22;9519;51.890;8.970;2023-04-01T04:39:16;10.10;99.90
18781;DHT22;9519;51.890;8.970;2023-04-01T04:44:18;10.10;99.90
18781;DHT22;9519;51.890;8.970;2023-04-01T04:49:20;10.10;99.90
18781;DHT22;9519;51.890;8.970;2023-04-01T04:54:24;10.00;99.90
18781;DHT22;9519;51.890;8.970;2023-04-01T04:59:26;10.00;99.90
18781;DHT22;9519;51.890;8.970;2023-04-01T05:04:28;10.00;99.90
18781;DHT22;9519;51.890;8.970;2023-04-01T05:09:31;10.00;99.90
18781;DHT22;9519;51.890;8.970;2023-04-01T05:14:34;10.00;99.90
18781;DHT22;9519;51.890;8.970;2023-04-01T05:19:36;10.00;99.90
18781;DHT22;9519;51.890;8.970;2023-04-01T05:24:40;10.00;99.90
18781;DHT22;9519;51.890;8.970;2023-04-01T05:29:42;10.00;99.90
18781;DHT22;9519;51.890;8.970;2023-04-01T05:34:44;10.10;99.90
18781;DHT22;9519;51.890;8.970;2023-04-01T05:39:47;10.00;99.90
18781;DHT22;9519;51.890;8.970;2023-04-01T05:44:49;10.10;99.90
18781;DHT22;9519;51.890;8.970;2023-04-01T05:49:51;10.10;99.90
18781;DHT22;9519;51.890;8.970;2023-04-01T05:54:55;10.10;99.90
18781;DHT22;9519;51.890;8.970;2023-04-01T05:59:57;10.10;99.90
18781;DHT22;9519;51.890;8.970;2023-04-01T06:05:09;10.20;99.90
18781;DHT22;9519;51.890;8.970;2023-04-01T06:10:18;10.20;99.90
18781;DHT22;9519;51.890;8.970;2023-04-01T06:15:34;10.20;99.90
18781;DHT22;9519;51.890;8.970;2023-04-01T06:20:43;10.20;99.90
18781;DHT22;9519;51.890;8.970;2023-04-01T06:26:15;10.30;99.90
18781;DHT22;9519;51.890;8.970;2023-04-01T06:31:38;10.20;99.90
18781;DHT22;9519;51.890;8.970;2023-04-01T06:37:06;10.30;99.90
18781;DHT22;9519;51.890;8.970;2023-04-01T06:42:30;10.30;99.90
18781;DHT22;9519;51.890;8.970;2023-04-01T06:47:50;10.40;99.90
18781;DHT22;9519;51.890;8.970;2023-04-01T06:53:04;10.40;99.90
18781;DHT22;9519;51.890;8.970;2023-04-01T06:58:20;10.40;99.90
18781;DHT22;9519;51.890;8.970;2023-04-01T07:03:30;10.40;99.90
18781;DHT22;9519;51.890;8.970;2023-04-01T07:08:38;10.50;99.90
18781;DHT22;9519;51.890;8.970;2023-04-01T07:13:49;10.50;99.90
18781;DHT22;9519;51.890;8.970;2023-04-01T07:18:59;10.70;99.90
18781;DHT22;9519;51.890;8.970;2023-04-01T07:24:09;10.60;99.90
18781;DHT22;9519;51.890;8.970;2023-04-01T07:29:17;10.70;99.90
18781;DHT22;9519;51.890;8.970;2023-04-01T07:34:23;10.70;99.90
18781;DHT22;9519;51.890;8.970;2023-04-01T07:39:37;10.80;99.90
18781;DHT22;9519;51.890;8.970;2023-04-01T07:44:54;10.80;99.90
18781;DHT22;9519;51.890;8.970;2023-04-01T07:50:11;10.80;99.90
18781;DHT22;9519;51.890;8.970;2023-04-01T07:55:24;10.90;99.90
18781;DHT22;9519;51.890;8.970;2023-04-01T08:00:37;10.90;99.90
18781;DHT22;9519;51.890;8.970;2023-04-01T08:05:50;10.90;99.90
18781;DHT22;9519;51.890;8.970;2023-04-01T08:11:03;11.00;99.90
18781;DHT22;9519;51.890;8.970;2023-04-01T08:16:20;11.00;99.90
18781;DHT22;9519;51.890;8.970;2023-04-01T08:21:35;11.10;99.90
18781;DHT22;9519;51.890;8.970;2023-04-01T08:26:44;11.20;99.90
18781;DHT22;9519;51.890;8.970;2023-04-01T08:31:54;11.30;99.90
18781;DHT22;9519;51.890;8.970;2023-04-01T08:37:02;11.40;99.90
18781;DHT22;9519;51.890;8.970;2023-04-01T08:42:24;11.50;99.90
18781;DHT22;9519;51.890;8.970;2023-04-01T08:47:50;11.50;99.90
18781;DHT22;9519;51.890;8.970;2023-04-01T08:53:14;11.60;99.90
18781;DHT22;9519;51.890;8.970;2023-04-01T08:58:54;11.60;99.90
18781;DHT22;9519;51.890;8.970;2023-04-01T09:04:25;11.60;99.90
18781;DHT22;9519;51.890;8.970;2023-04-01T09:16:04;11.70;99.90
18781;DHT22;9519;51.890;8.970;2023-04-01T09:21:24;11.80;99.90
18781;DHT22;9519;51.890;8.970;2023-04-01T09:26:59;11.90;99.90
18781;DHT22;9519;51.890;8.970;2023-04-01T09:38:06;12.10;99.90
18781;DHT22;9519;51.890;8.970;2023-04-01T09:43:26;12.20;99.90
18781;DHT22;9519;51.890;8.970;2023-04-01T09:48:52;12.10;99.90
18781;DHT22;9519;51.890;8.970;2023-04-01T09:54:28;12.10;99.90
18781;DHT22;9519;51.890;8.970;2023-04-01T10:06:15;12.20;99.90
18781;DHT22;9519;51.890;8.970;2023-04-01T10:12:35;12.40;99.90
18781;DHT22;9519;51.890;8.970;2023-04-01T10:18:47;12.60;99.90
18781;DHT22;9519;51.890;8.970;2023-04-01T10:30:39;12.80;99.90
18781;DHT22;9519;51.890;8.970;2023-04-01T10:36:40;12.80;99.90
18781;DHT22;9519;51.890;8.970;2023-04-01T10:42:24;12.80;99.90
18781;DHT22;9519;51.890;8.970;2023-04-01T11:12:01;12.80;99.90
18781;DHT22;9519;51.890;8.970;2023-04-01T11:18:02;12.90;99.90
18781;DHT22;9519;51.890;8.970;2023-04-01T11:23:33;13.00;99.90
18781;DHT22;9519;51.890;8.970;2023-04-01T11:29:22;13.10;99.90
18781;DHT22;9519;51.890;8.970;2023-04-01T11:34:55;13.20;99.90
18781;DHT22;9519;51.890;8.970;2023-04-01T11:40:12;13.10;99.90
18781;DHT22;9519;51.890;8.970;2023-04-01T11:45:37;13.00;99.90
18781;DHT22;9519;51.890;8.970;2023-04-01T11:56:41;13.00;99.90
18781;DHT22;9519;51.890;8.970;2023-04-01T12:02:00;13.00;99.90
18781;DHT22;9519;51.890;8.970;2023-04-01T12:07:19;13.00;99.90
18781;DHT22;9519;51.890;8.970;2023-04-01T12:12:32;13.10;99.90
18781;DHT22;9519;51.890;8.970;2023-04-01T12:17:50;13.20;99.90
18781;DHT22;9519;51.890;8.970;2023-04-01T12:23:08;13.20;99.90
18781;DHT22;9519;51.890;8.970;2023-04-01T12:28:24;13.40;99.90
18781;DHT22;9519;51.890;8.970;2023-04-01T12:33:48;13.50;99.90
18781;DHT22;9519;51.890;8.970;2023-04-01T12:39:22;13.60;99.90
18781;DHT22;9519;51.890;8.970;2023-04-01T12:44:56;13.60;99.90
18781;DHT22;9519;51.890;8.970;2023-04-01T12:50:19;13.60;99.90
18781;DHT22;9519;51.890;8.970;2023-04-01T12:55:53;13.60;99.90
18781;DHT22;9519;51.890;8.970;2023-04-01T13:06:49;13.60;99.90
18781;DHT22;9519;51.890;8.970;2023-04-01T13:12:15;13.50;99.90
18781;DHT22;9519;51.890;8.970;2023-04-01T13:17:41;13.50;99.90
18781;DHT22;9519;51.890;8.970;2023-04-01T13:22:59;13.50;99.90
18781;DHT22;9519;51.890;8.970;2023-04-01T13:28:14;13.50;99.90
18781;DHT22;9519;51.890;8.970;2023-04-01T13:33:27;13.40;99.90
18781;DHT22;9519;51.890;8.970;2023-04-01T13:38:52;13.40;99.90
18781;DHT22;9519;51.890;8.970;2023-04-01T13:44:11;13.40;99.90
18781;DHT22;9519;51.890;8.970;2023-04-01T13:55:29;13.30;99.90
18781;DHT22;9519;51.890;8.970;2023-04-01T14:00:45;13.30;99.90
18781;DHT22;9519;51.890;8.970;2023-04-01T14:06:05;13.40;99.90
18781;DHT22;9519;51.890;8.970;2023-04-01T14:11:19;13.50;99.90
18781;DHT22;9519;51.890;8.970;2023-04-01T14:16:55;13.60;99.90
18781;DHT22;9519;51.890;8.970;2023-04-01T14:22:16;13.70;99.90
18781;DHT22;9519;51.890;8.970;2023-04-01T14:27:41;13.80;99.90
18781;DHT22;9519;51.890;8.970;2023-04-01T14:32:54;13.80;99.90
18781;DHT22;9519;51.890;8.970;2023-04-01T14:38:24;13.80;99.90
18781;DHT22;9519;51.890;8.970;2023-04-01T14:43:47;13.80;99.90
18781;DHT22;9519;51.890;8.970;2023-04-01T14:48:57;13.80;99.90
18781;DHT22;9519;51.890;8.970;2023-04-01T14:54:07;13.80;99.90
18781;DHT22;9519;51.890;8.970;2023-04-01T14:59:28;13.90;99.90
18781;DHT22;9519;51.890;8.970;2023-04-01T15:04:53;13.90;99.90
18781;DHT22;9519;51.890;8.970;2023-04-01T15:10:05;13.90;99.90
18781;DHT22;9519;51.890;8.970;2023-04-01T15:15:30;13.80;99.90
18781;DHT22;9519;51.890;8.970;2023-04-01T15:21:01;13.80;99.90
18781;DHT22;9519;51.890;8.970;2023-04-01T15:26:38;13.70;99.90
18781;DHT22;9519;51.890;8.970;2023-04-01T15:32:02;13.60;99.90
18781;DHT22;9519;51.890;8.970;2023-04-01T15:37:26;13.40;99.90
18781;DHT22;9519;51.890;8.970;2023-04-01T15:42:49;13.30;99.90
18781;DHT22;9519;51.890;8.970;2023-04-01T15:48:01;13.20;99.90
18781;DHT22;9519;51.890;8.970;2023-04-01T15:53:35;13.10;99.90
18781;DHT22;9519;51.890;8.970;2023-04-01T15:58:54;12.90;99.90
18781;DHT22;9519;51.890;8.970;2023-04-01T16:04:26;12.80;99.90
18781;DHT22;9519;51.890;8.970;2023-04-01T16:09:55;12.70;99.90
18781;DHT22;9519;51.890;8.970;2023-04-01T16:15:17;12.70;99.90
18781;DHT22;9519;51.890;8.970;2023-04-01T16:20:42;12.50;99.90
18781;DHT22;9519;51.890;8.970;2023-04-01T16:25:53;12.40;99.90
18781;DHT22;9519;51.890;8.970;2023-04-01T16:31:07;12.30;99.90
18781;DHT22;9519;51.890;8.970;2023-04-01T16:36:25;12.20;99.90
18781;DHT22;9519;51.890;8.970;2023-04-01T16:41:33;12.10;99.90
18781;DHT22;9519;51.890;8.970;2023-04-01T16:46:39;12.10;99.90
18781;DHT22;9519;51.890;8.970;2023-04-01T16:51:52;12.00;99.90
18781;DHT22;9519;51.890;8.970;2023-04-01T16:57:03;12.00;99.90
18781;DHT22;9519;51.890;8.970;2023-04-01T17:02:17;12.00;99.90
18781;DHT22;9519;51.890;8.970;2023-04-01T17:07:38;12.00;99.90
18781;DHT22;9519;51.890;8.970;2023-04-01T17:12:53;11.90;99.90
18781;DHT22;9519;51.890;8.970;2023-04-01T17:18:08;11.90;99.90
18781;DHT22;9519;51.890;8.970;2023-04-01T17:23:24;11.80;99.90
18781;DHT22;9519;51.890;8.970;2023-04-01T17:28:39;11.80;99.90
18781;DHT22;9519;51.890;8.970;2023-04-01T17:34:09;11.70;99.90
18781;DHT22;9519;51.890;8.970;2023-04-01T17:45:21;11.60;99.90
18781;DHT22;9519;51.890;8.970;2023-04-01T17:50:35;11.50;99.90
18781;DHT22;9519;51.890;8.970;2023-04-01T17:56:03;11.30;99.90
18781;DHT22;9519;51.890;8.970;2023-04-01T18:01:38;11.00;99.90
18781;DHT22;9519;51.890;8.970;2023-04-01T18:07:07;10.80;99.90
18781;DHT22;9519;51.890;8.970;2023-04-01T18:12:34;10.60;99.90
18781;DHT22;9519;51.890;8.970;2023-04-01T18:17:55;10.40;99.90
18781;DHT22;9519;51.890;8.970;2023-04-01T18:23:19;10.30;99.90
18781;DHT22;9519;51.890;8.970;2023-04-01T18:28:33;10.20;99.90
18781;DHT22;9519;51.890;8.970;2023-04-01T18:33:48;10.00;99.90
18781;DHT22;9519;51.890;8.970;2023-04-01T18:39:01;9.90;99.90
18781;DHT22;9519;51.890;8.970;2023-04-01T18:44:25;9.80;99.90
18781;DHT22;9519;51.890;8.970;2023-04-01T18:49:40;9.80;99.90
18781;DHT22;9519;51.890;8.970;2023-04-01T18:55:15;9.70;99.90
18781;DHT22;9519;51.890;8.970;2023-04-01T19:00:34;9.50;99.90
18781;DHT22;9519;51.890;8.970;2023-04-01T19:05:42;9.40;99.90
18781;DHT22;9519;51.890;8.970;2023-04-01T19:10:53;9.40;99.90
18781;DHT22;9519;51.890;8.970;2023-04-01T19:16:09;9.30;99.90
18781;DHT22;9519;51.890;8.970;2023-04-01T19:21:22;9.20;99.90
18781;DHT22;9519;51.890;8.970;2023-04-01T19:26:34;9.20;99.90
18781;DHT22;9519;51.890;8.970;2023-04-01T19:31:52;9.10;99.90
18781;DHT22;9519;51.890;8.970;2023-04-01T19:37:08;9.00;99.90
18781;DHT22;9519;51.890;8.970;2023-04-01T19:42:19;9.00;99.90
18781;DHT22;9519;51.890;8.970;2023-04-01T19:47:43;8.90;99.90
18781;DHT22;9519;51.890;8.970;2023-04-01T19:52:54;8.80;99.90
18781;DHT22;9519;51.890;8.970;2023-04-01T19:58:04;8.60;99.90
18781;DHT22;9519;51.890;8.970;2023-04-01T20:03:25;8.60;99.90
18781;DHT22;9519;51.890;8.970;2023-04-01T20:08:48;8.50;99.90
18781;DHT22;9519;51.890;8.970;2023-04-01T20:14:07;8.50;99.90
18781;DHT22;9519;51.890;8.970;2023-04-01T20:19:24;8.40;99.90
18781;DHT22;9519;51.890;8.970;2023-04-01T20:24:33;8.30;99.90
18781;DHT22;9519;51.890;8.970;2023-04-01T20:29:47;8.20;99.90
18781;DHT22;9519;51.890;8.970;2023-04-01T20:35:35;8.20;99.90
18781;DHT22;9519;51.890;8.970;2023-04-01T20:40:45;8.10;99.90
18781;DHT22;9519;51.890;8.970;2023-04-01T20:45:57;8.00;99.90
18781;DHT22;9519;51.890;8.970;2023-04-01T20:51:06;7.90;99.90
18781;DHT22;9519;51.890;8.970;2023-04-01T20:56:22;7.90;99.90
18781;DHT22;9519;51.890;8.970;2023-04-01T21:01:38;7.80;99.90
18781;DHT22;9519;51.890;8.970;2023-04-01T21:06:57;7.70;99.90
18781;DHT22;9519;51.890;8.970;2023-04-01T21:12:18;7.60;99.90
18781;DHT22;9519;51.890;8.970;2023-04-01T21:17:42;7.60;99.90
18781;DHT22;9519;51.890;8.970;2023-04-01T21:23:19;7.50;99.90
18781;DHT22;9519;51.890;8.970;2023-04-01T21:28:56;7.50;99.90
18781;DHT22;9519;51.890;8.970;2023-04-01T21:34:29;7.40;99.90
18781;DHT22;9519;51.890;8.970;2023-04-01T21:39:54;7.30;99.90
18781;DHT22;9519;51.890;8.970;2023-04-01T21:45:37;7.30;99.90
18781;DHT22;9519;51.890;8.970;2023-04-01T22:03:17;7.00;99.90
18781;DHT22;9519;51.890;8.970;2023-04-01T22:08:54;7.00;99.90
18781;DHT22;9519;51.890;8.970;2023-04-01T22:14:06;6.90;99.90
18781;DHT22;9519;51.890;8.970;2023-04-01T22:19:19;6.90;99.90
18781;DHT22;9519;51.890;8.970;2023-04-01T22:24:36;6.90;99.90
18781;DHT22;9519;51.890;8.970;2023-04-01T22:29:53;6.80;99.90
18781;DHT22;9519;51.890;8.970;2023-04-01T22:35:07;6.70;99.90
18781;DHT22;9519;51.890;8.970;2023-04-01T22:40:23;6.70;99.90
18781;DHT22;9519;51.890;8.970;2023-04-01T22:51:07;6.70;99.90
18781;DHT22;9519;51.890;8.970;2023-04-01T22:56:20;6.60;99.90
18781;DHT22;9519;51.890;8.970;2023-04-01T23:01:32;6.50;99.90
18781;DHT22;9519;51.890;8.970;2023-04-01T23:06:44;6.50;99.90
18781;DHT22;9519;51.890;8.970;2023-04-01T23:11:51;6.70;99.90
18781;DHT22;9519;51.890;8.970;2023-04-01T23:17:03;6.30;99.90
18781;DHT22;9519;51.890;8.970;2023-04-01T23:22:19;6.30;99.90
18781;DHT22;9519;51.890;8.970;2023-04-01T23:27:31;6.30;99.90
18781;DHT22;9519;51.890;8.970;2023-04-01T23:32:39;6.20;99.90
18781;DHT22;9519;51.890;8.970;2023-04-01T23:37:41;6.20;99.90
18781;DHT22;9519;51.890;8.970;2023-04-01T23:42:43;6.10;99.90
18781;DHT22;9519;51.890;8.970;2023-04-01T23:47:47;6.10;99.90
18781;DHT22;9519;51.890;8.970;2023-04-01T23:52:53;6.00;99.90
18781;DHT22;9519;51.890;8.970;2023-04-01T23:58:12;5.90;99.90
